Time;durP1;ratioP1;P1;durP2;ratioP2;P2;SDS_P1;SDS_P2;PMS_P1;PMS_P2;Temp;Humidity;BMP_temperature;BMP_pressure;BME280_temperature;BME280_humidity;BME280_pressure;Samples;Min_cycle;Max_cycle;Signal;HPM_P1;HPM_P2
2021/06/02 00:02:21;;;;;;;3.70;2.28;;;17.70;71.90;;;;;;5047027;28;20383;-80
2021/06/02 00:04:50;;;;;;;2.55;2.35;;;17.70;71.40;;;;;;5048239;28;20022;-79
2021/06/02 00:07:24;;;;;;;2.40;2.30;;;17.70;71.00;;;;;;5048250;28;20024;-79
2021/06/02 00:09:51;;;;;;;3.75;2.30;;;17.70;70.20;;;;;;5046870;28;20048;-80
2021/06/02 00:12:17;;;;;;;2.50;2.30;;;17.70;69.80;;;;;;5048231;28;20029;-79
2021/06/02 00:14:43;;;;;;;2.28;2.17;;;17.60;69.20;;;;;;5048256;28;20017;-79
2021/06/02 00:17:10;;;;;;;2.60;2.40;;;17.60;69.20;;;;;;5048263;28;20036;-80
2021/06/02 00:19:36;;;;;;;2.60;2.50;;;17.60;68.90;;;;;;5046880;28;20116;-79
2021/06/02 00:22:07;;;;;;;2.45;2.20;;;17.60;68.10;;;;;;5051749;27;20128;-79
2021/06/02 00:24:34;;;;;;;5.50;2.27;;;17.60;68.00;;;;;;5077248;27;20036;-79
2021/06/02 00:27:02;;;;;;;2.50;2.30;;;17.70;67.60;;;;;;5046788;28;20252;-80
2021/06/02 00:29:34;;;;;;;2.55;2.00;;;17.60;66.90;;;;;;5047904;28;20270;-80
2021/06/02 00:32:06;;;;;;;1.90;1.80;;;17.70;67.30;;;;;;5047948;28;20500;-79
2021/06/02 00:34:32;;;;;;;2.03;1.92;;;17.70;67.20;;;;;;5047984;28;20083;-79
2021/06/02 00:36:59;;;;;;;2.58;2.28;;;17.60;66.70;;;;;;5046567;28;20475;-80
2021/06/02 00:39:26;;;;;;;2.33;2.13;;;17.60;66.40;;;;;;5049306;28;20100;-79
2021/06/02 00:41:53;;;;;;;2.03;1.92;;;17.50;66.80;;;;;;5051310;28;20017;-79
2021/06/02 00:44:20;;;;;;;2.30;2.20;;;17.50;66.00;;;;;;5051239;28;20026;-80
2021/06/02 00:46:47;;;;;;;5.55;1.90;;;17.60;65.90;;;;;;5051373;28;20033;-80
2021/06/02 00:49:24;;;;;;;2.95;2.10;;;17.60;65.60;;;;;;5051140;28;20495;-79
2021/06/02 00:52:01;;;;;;;2.00;1.90;;;17.50;67.20;;;;;;5051064;28;20054;-79
2021/06/02 00:54:32;;;;;;;1.92;1.83;;;17.50;67.00;;;;;;5049776;28;20018;-79
2021/06/02 00:57:05;;;;;;;1.80;1.70;;;17.50;67.00;;;;;;5051045;28;20029;-79
2021/06/02 00:59:41;;;;;;;2.17;2.08;;;17.50;66.20;;;;;;5051052;28;20145;-79
2021/06/02 01:02:17;;;;;;;4.50;2.00;;;17.50;66.60;;;;;;5051117;28;20361;-79
2021/06/02 01:04:44;;;;;;;2.13;2.03;;;17.40;66.60;;;;;;5050877;28;20025;-79
2021/06/02 01:07:11;;;;;;;2.10;1.90;;;17.50;66.60;;;;;;5050992;28;20155;-79
2021/06/02 01:09:44;;;;;;;2.20;2.00;;;17.60;66.20;;;;;;5049604;28;20029;-79
2021/06/02 01:12:14;;;;;;;2.30;2.20;;;17.60;66.20;;;;;;5051010;28;20101;-80
2021/06/02 01:14:41;;;;;;;2.20;2.00;;;17.70;65.70;;;;;;5051004;28;20101;-79
2021/06/02 01:17:06;;;;;;;2.63;2.10;;;17.60;66.30;;;;;;5050656;28;20177;-79
2021/06/02 01:19:33;;;;;;;5.57;2.33;;;17.60;65.90;;;;;;5050775;28;20535;-79
2021/06/02 01:22:01;;;;;;;2.63;2.42;;;17.60;66.60;;;;;;5050939;28;20032;-79
2021/06/02 01:24:29;;;;;;;3.00;2.05;;;17.50;67.00;;;;;;5049430;28;20032;-79
2021/06/02 01:26:58;;;;;;;4.43;2.45;;;17.50;67.20;;;;;;5050502;28;20396;-80
2021/06/02 01:29:28;;;;;;;2.05;1.95;;;17.60;67.00;;;;;;5049204;28;20108;-79
2021/06/02 01:32:31;;;;;;;2.90;2.65;;;17.60;67.50;;;;;;5050595;28;20025;-79
2021/06/02 01:35:20;;;;;;;2.10;2.00;;;17.50;67.80;;;;;;5048926;28;20112;-79
2021/06/02 01:38:17;;;;;;;2.95;2.70;;;17.50;68.00;;;;;;5050355;28;20400;-79
2021/06/02 01:41:21;;;;;;;2.20;2.10;;;17.40;68.80;;;;;;5049034;28;20120;-80
2021/06/02 01:43:50;;;;;;;2.53;2.33;;;17.40;68.10;;;;;;5029056;28;20029;-80
2021/06/02 01:46:57;;;;;;;3.80;2.13;;;17.40;68.20;;;;;;5050412;28;20029;-79
2021/06/02 01:49:57;;;;;;;2.38;2.28;;;17.40;68.50;;;;;;5040948;28;20028;-80
2021/06/02 01:53:10;;;;;;;2.70;2.50;;;17.30;69.50;;;;;;5049566;28;20187;-79
2021/06/02 01:56:09;;;;;;;2.40;2.30;;;17.20;70.40;;;;;;5018444;28;20109;-79
2021/06/02 01:58:47;;;;;;;2.70;2.50;;;17.10;70.60;;;;;;5050090;28;20028;-79
2021/06/02 02:01:21;;;;;;;2.75;2.55;;;17.20;71.00;;;;;;5048822;28;20028;-80
2021/06/02 02:04:28;;;;;;;2.65;2.45;;;17.20;71.40;;;;;;5050355;28;20029;-79
2021/06/02 02:07:35;;;;;;;4.53;3.15;;;17.10;71.60;;;;;;5049962;28;20021;-80
2021/06/02 02:10:20;;;;;;;5.63;2.90;;;16.90;72.80;;;;;;5048507;28;20025;-80
2021/06/02 02:13:00;;;;;;;2.80;2.60;;;16.90;73.20;;;;;;5048654;28;20025;-80
2021/06/02 02:15:44;;;;;;;4.10;2.80;;;16.90;73.30;;;;;;5048599;28;20504;-79
2021/06/02 02:18:22;;;;;;;3.30;3.03;;;16.80;73.50;;;;;;5048689;28;20152;-80
2021/06/02 02:21:02;;;;;;;3.50;2.85;;;16.80;73.90;;;;;;5049897;28;20025;-80
2021/06/02 02:23:41;;;;;;;3.53;2.83;;;16.90;73.90;;;;;;5048435;28;20090;-80
2021/06/02 02:26:24;;;;;;;3.20;2.67;;;16.90;74.10;;;;;;5049710;28;20362;-80
2021/06/02 02:28:51;;;;;;;3.75;2.90;;;16.90;73.80;;;;;;5062227;27;20055;-80
2021/06/02 02:31:20;;;;;;;3.20;2.85;;;16.90;73.60;;;;;;5153319;27;20034;-80
2021/06/02 02:33:56;;;;;;;3.50;2.80;;;16.90;74.20;;;;;;5154482;27;20050;-80
2021/06/02 02:36:30;;;;;;;3.40;2.85;;;16.80;74.60;;;;;;5153103;27;20058;-79
2021/06/02 02:39:00;;;;;;;3.47;3.17;;;16.80;74.70;;;;;;5153129;27;20075;-80
2021/06/02 02:42:11;;;;;;;3.05;2.85;;;16.80;74.80;;;;;;5154253;27;20091;-80
2021/06/02 02:44:57;;;;;;;3.38;2.70;;;16.70;75.20;;;;;;5154313;27;20026;-80
2021/06/02 02:47:55;;;;;;;3.13;2.83;;;16.70;74.50;;;;;;5154332;27;20071;-79
2021/06/02 02:50:34;;;;;;;2.97;2.78;;;16.80;74.60;;;;;;5154074;27;20019;-80
2021/06/02 02:53:02;;;;;;;2.95;2.60;;;16.80;74.70;;;;;;5154109;27;20079;-80
2021/06/02 02:55:32;;;;;;;4.43;3.10;;;16.80;74.20;;;;;;5050876;27;20552;-80
2021/06/02 02:58:02;;;;;;;3.90;3.50;;;16.90;74.20;;;;;;5049274;28;20017;-80
2021/06/02 03:01:00;;;;;;;3.38;3.08;;;16.90;73.70;;;;;;5048120;28;20033;-80
2021/06/02 03:03:41;;;;;;;3.78;2.83;;;16.90;73.70;;;;;;5046416;28;20033;-80
2021/06/02 03:06:25;;;;;;;3.50;3.20;;;16.90;73.80;;;;;;5049045;28;20117;-80
2021/06/02 03:09:31;;;;;;;3.38;3.10;;;16.90;73.80;;;;;;5049069;28;20514;-80
2021/06/02 03:12:21;;;;;;;3.25;3.05;;;16.90;73.60;;;;;;5006962;28;20273;-80
2021/06/02 03:15:04;;;;;;;3.13;2.83;;;16.90;73.60;;;;;;5047305;28;20040;-79
2021/06/02 03:17:51;;;;;;;4.03;3.22;;;16.90;73.60;;;;;;5048872;28;20503;-80
2021/06/02 03:20:34;;;;;;;3.67;3.38;;;16.90;73.40;;;;;;5048770;28;20487;-79
2021/06/02 03:23:19;;;;;;;2.97;2.78;;;16.80;73.40;;;;;;5048813;28;20029;-80
2021/06/02 03:26:17;;;;;;;4.93;2.90;;;16.80;73.70;;;;;;5048803;28;20580;-80
2021/06/02 03:29:09;;;;;;;3.13;2.92;;;16.80;73.70;;;;;;5048809;28;20077;-80
2021/06/02 03:32:00;;;;;;;3.25;3.05;;;16.70;74.00;;;;;;5048660;28;20033;-80
2021/06/02 03:34:45;;;;;;;5.00;2.85;;;16.60;74.40;;;;;;5028827;28;20584;-80
2021/06/02 03:37:29;;;;;;;2.70;2.50;;;16.70;74.50;;;;;;5048673;28;20024;-80
2021/06/02 03:40:13;;;;;;;3.10;2.80;;;16.70;74.20;;;;;;5048451;28;20111;-80
2021/06/02 03:42:58;;;;;;;3.55;3.13;;;16.80;74.20;;;;;;5048383;28;20039;-80
2021/06/02 03:45:50;;;;;;;4.07;3.42;;;16.70;74.10;;;;;;5048401;28;20067;-80
2021/06/02 03:48:32;;;;;;;4.00;3.70;;;16.70;74.50;;;;;;5048124;28;20468;-80
2021/06/02 03:51:01;;;;;;;4.03;3.72;;;16.70;74.70;;;;;;5048362;28;20388;-80
2021/06/02 03:54:07;;;;;;;4.32;3.20;;;16.70;74.50;;;;;;5047128;28;20399;-80
2021/06/02 03:56:58;;;;;;;3.38;2.83;;;16.80;74.70;;;;;;5055420;28;20255;-80
2021/06/02 03:59:40;;;;;;;4.15;3.03;;;16.80;74.90;;;;;;5048386;28;20017;-79
2021/06/02 04:02:13;;;;;;;3.28;3.08;;;16.80;74.80;;;;;;5048374;28;20022;-80
2021/06/02 04:04:56;;;;;;;4.43;3.35;;;16.90;75.00;;;;;;5048338;28;20033;-80
2021/06/02 04:07:34;;;;;;;4.20;3.80;;;16.90;75.30;;;;;;5046889;28;20055;-80
2021/06/02 04:10:25;;;;;;;5.72;3.50;;;16.90;75.30;;;;;;5048352;28;20025;-80
2021/06/02 04:13:03;;;;;;;6.05;3.67;;;16.90;75.60;;;;;;5048030;28;20127;-80
2021/06/02 04:15:30;;;;;;;5.00;3.97;;;16.90;75.60;;;;;;5049855;28;20036;-80
2021/06/02 04:17:57;;;;;;;4.43;4.00;;;16.90;75.70;;;;;;5051652;28;20029;-80
2021/06/02 04:20:24;;;;;;;5.47;3.90;;;16.90;75.50;;;;;;5051768;28;20112;-80
2021/06/02 04:22:51;;;;;;;4.68;4.28;;;16.90;75.80;;;;;;5051665;28;20430;-80
2021/06/02 04:25:18;;;;;;;4.57;4.15;;;17.00;75.80;;;;;;5051572;28;20056;-80
2021/06/02 04:27:46;;;;;;;4.25;3.53;;;17.00;76.00;;;;;;5051482;28;20064;-80
2021/06/02 04:30:17;;;;;;;5.80;4.35;;;16.90;76.10;;;;;;5051635;28;20473;-80
2021/06/02 04:32:45;;;;;;;4.82;3.70;;;17.00;76.40;;;;;;5051264;28;20019;-80
2021/06/02 04:35:16;;;;;;;4.28;3.90;;;17.00;76.50;;;;;;5049864;28;20052;-80
2021/06/02 04:37:43;;;;;;;4.78;4.20;;;17.00;76.30;;;;;;5051717;27;20108;-80
2021/06/02 04:40:10;;;;;;;4.68;4.07;;;17.00;76.60;;;;;;5045094;27;20022;-80
2021/06/02 04:42:40;;;;;;;4.30;3.53;;;17.10;76.90;;;;;;5031515;28;20017;-79
2021/06/02 04:45:09;;;;;;;3.75;3.55;;;17.10;77.00;;;;;;5029965;28;20033;-80
2021/06/02 04:47:35;;;;;;;4.32;3.70;;;17.20;76.90;;;;;;5031376;28;20053;-80
2021/06/02 04:50:26;;;;;;;4.40;4.00;;;17.20;77.00;;;;;;5031433;28;20074;-80
2021/06/02 04:53:11;;;;;;;4.20;3.88;;;17.20;77.20;;;;;;5031420;28;20022;-80
2021/06/02 04:55:48;;;;;;;4.05;3.75;;;17.20;77.40;;;;;;5029883;28;20029;-80
2021/06/02 04:58:34;;;;;;;6.10;4.43;;;17.20;77.70;;;;;;5029784;28;20129;-80
2021/06/02 05:01:20;;;;;;;5.65;4.68;;;17.20;78.10;;;;;;5031273;28;20017;-80
2021/06/02 05:04:03;;;;;;;6.13;3.90;;;17.30;78.40;;;;;;5031211;28;20086;-80
2021/06/02 05:07:06;;;;;;;6.75;4.13;;;17.30;78.60;;;;;;5031026;28;20492;-79
2021/06/02 05:10:28;;;;;;;4.15;3.80;;;17.30;78.70;;;;;;5009877;28;20080;-80
2021/06/02 05:12:54;;;;;;;4.13;3.83;;;17.40;78.80;;;;;;5015976;28;20030;-79
2021/06/02 05:15:40;;;;;;;4.47;4.00;;;17.50;78.80;;;;;;5030498;28;20439;-79
2021/06/02 05:18:29;;;;;;;4.07;3.72;;;17.60;79.10;;;;;;5030695;28;20496;-76
2021/06/02 05:23:47;;;;;;;5.30;4.80;;;17.70;78.70;;;;;;5035199;28;20053;-76
2021/06/02 05:27:06;;;;;;;8.50;3.97;;;17.70;78.90;;;;;;5050152;28;20021;-76
2021/06/02 05:29:37;;;;;;;4.63;4.22;;;17.80;79.00;;;;;;5050599;28;20544;-76
2021/06/02 05:32:32;;;;;;;5.85;4.60;;;17.90;79.30;;;;;;5050466;28;20498;-76
2021/06/02 05:35:38;;;;;;;4.47;4.07;;;18.00;78.90;;;;;;5050464;28;20045;-76
2021/06/02 05:38:37;;;;;;;4.50;4.18;;;18.10;79.40;;;;;;5008473;28;20030;-77
2021/06/02 05:41:21;;;;;;;4.20;3.63;;;18.20;79.30;;;;;;4992204;28;20479;-76
2021/06/02 05:44:06;;;;;;;4.22;3.83;;;18.30;80.00;;;;;;5037536;28;20085;-76
2021/06/02 05:47:02;;;;;;;4.47;3.95;;;18.30;81.30;;;;;;5050163;28;20029;-76
2021/06/02 05:49:31;;;;;;;6.25;4.25;;;18.30;81.00;;;;;;5050107;28;20021;-76
2021/06/02 05:52:23;;;;;;;6.75;4.03;;;18.40;80.50;;;;;;5050256;28;20021;-76
2021/06/02 05:55:25;;;;;;;3.20;3.00;;;18.50;81.10;;;;;;5020606;28;20029;-77
2021/06/02 05:58:24;;;;;;;4.85;4.40;;;18.50;82.10;;;;;;5047923;28;20116;-76
2021/06/02 06:01:27;;;;;;;4.10;3.80;;;18.50;82.40;;;;;;5048577;28;20519;-76
2021/06/02 06:04:34;;;;;;;4.28;3.40;;;18.60;83.30;;;;;;5049627;28;20044;-76
2021/06/02 06:07:27;;;;;;;8.23;3.05;;;18.60;82.30;;;;;;5031899;28;20508;-76
2021/06/02 06:10:14;;;;;;;3.53;3.22;;;18.70;81.90;;;;;;5050136;28;20056;-76
2021/06/02 06:13:14;;;;;;;4.80;3.35;;;18.70;78.20;;;;;;5048288;28;20033;-77
2021/06/02 06:16:04;;;;;;;3.08;2.78;;;18.80;79.20;;;;;;5049831;28;20036;-76
2021/06/02 06:18:47;;;;;;;3.95;3.13;;;18.90;79.90;;;;;;5048320;28;20365;-76
2021/06/02 06:21:22;;;;;;;4.43;3.15;;;18.90;80.40;;;;;;5048506;28;20170;-76
2021/06/02 06:24:08;;;;;;;3.63;3.03;;;19.00;79.10;;;;;;5049818;28;20009;-76
2021/06/02 06:26:42;;;;;;;3.25;2.97;;;19.00;77.30;;;;;;5048158;28;20054;-76
2021/06/02 06:29:16;;;;;;;3.10;2.90;;;19.10;76.70;;;;;;5049467;28;20430;-76
2021/06/02 06:31:47;;;;;;;3.65;3.45;;;19.20;76.70;;;;;;5049193;28;20021;-76
2021/06/02 06:34:17;;;;;;;3.65;2.90;;;19.30;76.70;;;;;;5048792;28;20089;-76
2021/06/02 06:36:45;;;;;;;3.17;2.92;;;19.30;75.40;;;;;;5048936;28;20124;-76
2021/06/02 06:39:15;;;;;;;3.75;2.97;;;19.30;74.80;;;;;;5050378;28;20029;-76
2021/06/02 06:41:43;;;;;;;3.08;2.90;;;19.40;73.90;;;;;;5050215;28;20449;-76
2021/06/02 06:44:11;;;;;;;3.55;3.28;;;19.40;72.10;;;;;;5083805;27;20147;-76
2021/06/02 06:46:38;;;;;;;3.40;3.15;;;19.50;70.50;;;;;;5153118;27;20068;-76
2021/06/02 06:49:06;;;;;;;4.30;2.47;;;19.50;70.30;;;;;;5146200;27;20023;-76
2021/06/02 06:51:34;;;;;;;3.75;3.10;;;19.50;70.40;;;;;;5028732;28;20048;-76
2021/06/02 06:54:04;;;;;;;3.63;3.28;;;19.60;71.90;;;;;;5037093;28;20500;-76
2021/06/02 06:56:31;;;;;;;3.10;2.90;;;19.60;73.40;;;;;;5050424;28;20093;-76
2021/06/02 06:59:01;;;;;;;2.92;2.72;;;19.70;73.20;;;;;;5049052;28;20025;-76
2021/06/02 07:01:31;;;;;;;3.08;2.88;;;19.70;74.30;;;;;;5047303;28;20081;-76
2021/06/02 07:04:00;;;;;;;4.90;3.20;;;19.80;74.40;;;;;;5040574;28;20039;-76
2021/06/02 07:06:27;;;;;;;5.85;3.30;;;19.80;73.00;;;;;;5047127;28;20051;-76
2021/06/02 07:08:53;;;;;;;2.90;2.70;;;19.80;72.00;;;;;;5041159;28;20110;-76
2021/06/02 07:11:19;;;;;;;3.50;3.20;;;19.90;72.90;;;;;;5030445;28;20129;-76
2021/06/02 07:13:47;;;;;;;3.05;2.85;;;20.00;70.60;;;;;;5030266;28;20036;-76
2021/06/02 07:16:14;;;;;;;6.22;2.85;;;20.10;71.50;;;;;;5028891;28;20041;-76
2021/06/02 07:18:45;;;;;;;3.17;2.97;;;20.00;70.70;;;;;;5029757;28;20553;-76
2021/06/02 07:21:12;;;;;;;3.22;3.03;;;20.10;72.10;;;;;;5029844;28;20948;-76
2021/06/02 07:23:42;;;;;;;3.85;3.30;;;20.20;72.90;;;;;;5051704;27;20017;-76
2021/06/02 07:26:09;;;;;;;3.97;3.53;;;20.20;73.00;;;;;;5048603;28;20056;-76
2021/06/02 07:28:37;;;;;;;3.40;3.10;;;20.30;72.20;;;;;;5049711;28;20049;-76
2021/06/02 07:31:04;;;;;;;3.75;3.38;;;20.40;70.80;;;;;;5045418;28;20056;-76
2021/06/02 07:33:29;;;;;;;2.90;2.65;;;20.40;69.40;;;;;;5029943;28;20033;-76
2021/06/02 07:35:55;;;;;;;2.55;2.40;;;20.40;70.30;;;;;;5035469;28;20056;-76
2021/06/02 07:38:21;;;;;;;2.85;2.65;;;20.50;70.60;;;;;;5044046;28;20028;-76
2021/06/02 07:40:47;;;;;;;2.13;2.03;;;20.50;70.10;;;;;;5048076;28;20033;-76
2021/06/02 07:43:13;;;;;;;2.35;2.03;;;20.60;68.50;;;;;;5049070;28;20025;-76
2021/06/02 07:45:39;;;;;;;2.60;2.40;;;20.60;68.50;;;;;;5049521;28;20514;-76
2021/06/02 07:48:06;;;;;;;3.00;2.53;;;20.60;67.10;;;;;;5049125;28;20016;-76
2021/06/02 07:50:31;;;;;;;6.78;2.20;;;20.70;67.00;;;;;;5047643;28;20025;-76
2021/06/02 07:52:57;;;;;;;2.33;2.15;;;20.70;64.60;;;;;;5049489;28;20023;-76
2021/06/02 07:55:23;;;;;;;1.60;1.50;;;20.80;64.40;;;;;;5049367;28;20013;-76
2021/06/02 07:57:49;;;;;;;1.80;1.70;;;20.90;60.70;;;;;;5049440;28;20077;-76
2021/06/02 08:00:15;;;;;;;2.55;2.00;;;20.90;62.80;;;;;;5049821;28;20033;-76
2021/06/02 08:02:42;;;;;;;2.17;1.98;;;21.00;61.50;;;;;;5049773;28;20021;-76
2021/06/02 08:05:09;;;;;;;1.88;1.77;;;21.20;60.80;;;;;;5047287;28;20059;-76
2021/06/02 08:07:35;;;;;;;1.98;1.88;;;21.30;61.10;;;;;;5042121;28;20456;-76
2021/06/02 08:10:01;;;;;;;2.00;1.90;;;21.40;60.00;;;;;;5033390;28;20030;-76
2021/06/02 08:12:26;;;;;;;2.88;1.90;;;21.40;59.50;;;;;;5036293;28;20063;-76
2021/06/02 08:14:52;;;;;;;1.95;1.85;;;21.50;61.30;;;;;;5048187;28;20029;-76
2021/06/02 08:17:18;;;;;;;5.78;3.67;;;21.50;58.80;;;;;;5047285;28;20029;-76
2021/06/02 08:19:43;;;;;;;3.47;3.08;;;21.60;57.80;;;;;;5046861;28;20121;-76
2021/06/02 08:22:09;;;;;;;1.55;1.45;;;21.60;58.60;;;;;;5047136;28;20061;-76
2021/06/02 08:24:38;;;;;;;1.85;1.75;;;21.70;56.70;;;;;;5046652;28;20049;-76
2021/06/02 08:27:06;;;;;;;1.52;1.45;;;21.80;56.90;;;;;;5046450;28;20025;-76
2021/06/02 08:29:31;;;;;;;3.92;1.52;;;21.90;55.90;;;;;;5045712;28;20025;-75
2021/06/02 08:31:57;;;;;;;2.53;1.65;;;21.90;58.20;;;;;;5048195;28;20032;-76
2021/06/02 08:34:23;;;;;;;2.03;1.88;;;21.90;55.10;;;;;;5048767;28;20068;-76
2021/06/02 08:36:49;;;;;;;1.58;1.48;;;21.90;58.40;;;;;;5043656;28;20041;-76
2021/06/02 08:39:14;;;;;;;1.88;1.77;;;21.90;57.70;;;;;;5029140;28;20029;-76
2021/06/02 08:41:40;;;;;;;1.42;1.33;;;21.90;58.30;;;;;;5027855;28;20021;-76
2021/06/02 08:44:09;;;;;;;3.17;1.70;;;21.90;55.20;;;;;;5027959;28;20037;-76
2021/06/02 08:46:36;;;;;;;1.85;1.75;;;22.00;57.10;;;;;;5027508;28;20025;-80
2021/06/02 08:49:02;;;;;;;3.03;1.92;;;22.00;57.80;;;;;;5028968;28;20182;-77
2021/06/02 08:51:28;;;;;;;2.05;1.95;;;21.90;58.20;;;;;;5029121;28;20014;-77
2021/06/02 08:53:54;;;;;;;1.98;1.88;;;21.80;58.00;;;;;;5035969;28;20499;-77
2021/06/02 08:56:21;;;;;;;2.65;1.70;;;21.80;58.80;;;;;;5049084;28;20021;-77
2021/06/02 08:58:47;;;;;;;2.35;1.60;;;21.80;56.70;;;;;;5048675;28;20076;-77
2021/06/02 09:01:14;;;;;;;2.00;1.90;;;21.80;55.90;;;;;;5050178;28;20025;-77
2021/06/02 09:03:40;;;;;;;2.00;1.90;;;21.80;58.00;;;;;;5051286;28;20031;-77
2021/06/02 09:06:08;;;;;;;5.35;1.95;;;21.70;56.10;;;;;;5052271;28;20031;-77
2021/06/02 09:08:34;;;;;;;2.70;1.80;;;21.70;55.40;;;;;;5052103;28;20070;-77
2021/06/02 09:11:17;;;;;;;1.70;1.60;;;21.70;56.50;;;;;;5052331;28;20022;-77
2021/06/02 09:13:45;;;;;;;1.75;1.65;;;21.80;56.70;;;;;;5051046;28;20029;-77
2021/06/02 09:16:30;;;;;;;1.80;1.70;;;21.90;56.70;;;;;;5050649;28;20032;-77
2021/06/02 09:19:02;;;;;;;1.77;1.67;;;22.00;56.70;;;;;;5051817;28;20059;-77
2021/06/02 09:21:29;;;;;;;3.17;1.60;;;22.00;52.60;;;;;;5052112;28;20394;-76
2021/06/02 09:23:55;;;;;;;1.42;1.33;;;22.00;52.20;;;;;;5052037;28;20089;-76
2021/06/02 09:26:23;;;;;;;3.97;3.08;;;22.00;54.30;;;;;;5051285;28;20021;-76
2021/06/02 09:28:52;;;;;;;1.90;1.80;;;22.30;55.20;;;;;;5049236;28;20055;-77
2021/06/02 09:31:18;;;;;;;1.60;1.50;;;22.40;54.70;;;;;;5051122;28;20021;-79
2021/06/02 09:33:47;;;;;;;3.58;2.00;;;22.50;55.40;;;;;;5051713;28;20045;-79
2021/06/02 09:36:14;;;;;;;1.70;1.60;;;22.40;54.30;;;;;;5051814;28;20021;-79
2021/06/02 09:38:42;;;;;;;2.17;2.08;;;22.40;51.10;;;;;;5050591;28;20021;-79
2021/06/02 09:41:13;;;;;;;2.15;1.70;;;22.50;51.50;;;;;;5050227;28;20025;-79
2021/06/02 09:43:39;;;;;;;2.33;1.60;;;22.70;51.20;;;;;;5050271;28;20025;-79
2021/06/02 09:46:10;;;;;;;1.80;1.70;;;22.80;50.40;;;;;;5048863;28;20058;-79
2021/06/02 09:48:47;;;;;;;2.40;1.98;;;22.70;49.90;;;;;;5049023;28;20053;-79
2021/06/02 09:51:31;;;;;;;1.63;1.52;;;22.80;51.70;;;;;;5048949;28;20254;-79
2021/06/02 09:53:59;;;;;;;2.95;1.83;;;22.90;50.60;;;;;;5050048;28;20552;-79
2021/06/02 09:56:51;;;;;;;1.80;1.70;;;22.90;52.50;;;;;;5050175;28;20028;-79
2021/06/02 09:59:18;;;;;;;2.00;1.90;;;22.90;53.70;;;;;;5046687;28;20038;-79
2021/06/02 10:02:02;;;;;;;2.00;1.70;;;23.00;52.20;;;;;;5050126;28;20031;-79
2021/06/02 10:04:31;;;;;;;1.83;1.73;;;23.10;48.70;;;;;;5050054;28;20025;-79
2021/06/02 10:06:59;;;;;;;2.22;1.70;;;23.10;47.60;;;;;;5049971;28;20032;-79
2021/06/02 10:09:28;;;;;;;2.15;1.55;;;23.30;51.40;;;;;;5050070;28;20025;-79
2021/06/02 10:12:07;;;;;;;1.63;1.52;;;23.30;49.60;;;;;;5049491;28;20056;-79
2021/06/02 10:14:34;;;;;;;1.45;1.35;;;23.40;48.50;;;;;;5049855;28;20029;-79
2021/06/02 10:17:00;;;;;;;1.40;1.30;;;23.40;48.00;;;;;;5049930;28;20054;-79
2021/06/02 10:19:55;;;;;;;2.35;1.80;;;23.40;49.30;;;;;;5049574;28;20029;-79
2021/06/02 10:22:29;;;;;;;2.03;1.92;;;23.50;50.10;;;;;;5035763;28;20037;-78
2021/06/02 10:24:57;;;;;;;2.35;2.17;;;23.50;51.20;;;;;;5049430;28;20157;-79
2021/06/02 10:27:23;;;;;;;3.22;3.03;;;23.70;50.60;;;;;;5049579;28;20508;-78
2021/06/02 10:29:50;;;;;;;2.40;2.17;;;23.70;51.00;;;;;;5049725;28;20025;-79
2021/06/02 10:32:17;;;;;;;4.25;3.72;;;23.80;50.30;;;;;;5048301;28;20021;-79
2021/06/02 10:34:43;;;;;;;3.28;2.38;;;23.90;51.90;;;;;;5049448;28;20049;-79
2021/06/02 10:37:12;;;;;;;2.22;2.00;;;23.90;51.50;;;;;;5049487;28;20033;-78
2021/06/02 10:39:40;;;;;;;2.67;2.10;;;24.00;52.80;;;;;;5049453;28;20024;-78
2021/06/02 10:42:21;;;;;;;3.08;2.58;;;24.20;51.30;;;;;;5064118;27;20505;-78
2021/06/02 10:44:58;;;;;;;2.60;2.40;;;24.30;49.50;;;;;;5049427;28;20029;-78
2021/06/02 10:47:26;;;;;;;2.22;2.13;;;24.30;49.10;;;;;;5049148;28;20064;-78
2021/06/02 10:49:52;;;;;;;2.40;2.30;;;24.30;49.40;;;;;;5049118;28;20078;-78
2021/06/02 10:52:39;;;;;;;1.98;1.88;;;24.40;47.00;;;;;;5049428;28;20105;-78
2021/06/02 10:55:38;;;;;;;5.30;4.75;;;24.50;46.60;;;;;;5047966;28;20028;-78
2021/06/02 10:58:27;;;;;;;4.10;3.00;;;24.60;49.10;;;;;;5026695;28;20040;-78
2021/06/02 11:01:13;;;;;;;2.17;2.08;;;24.80;49.50;;;;;;5047884;28;20025;-78
2021/06/02 11:03:43;;;;;;;1.73;1.63;;;25.00;49.50;;;;;;5048005;28;20048;-78
2021/06/02 11:06:15;;;;;;;2.20;1.80;;;25.00;48.10;;;;;;5049031;28;20035;-78
2021/06/02 11:09:06;;;;;;;2.08;1.98;;;25.00;48.70;;;;;;5048909;28;20023;-78
2021/06/02 11:11:34;;;;;;;2.92;2.58;;;25.10;47.50;;;;;;5044010;27;20537;-78
2021/06/02 11:16:45;;;;;;;2.15;2.00;;;25.30;46.90;;;;;;5049157;28;20029;-81
2021/06/02 11:19:11;;;;;;;4.20;2.75;;;25.10;45.50;;;;;;5048943;28;20021;-78
2021/06/02 11:21:52;;;;;;;2.03;1.92;;;25.10;45.70;;;;;;5047457;28;20033;-78
2021/06/02 11:24:37;;;;;;;2.90;2.70;;;25.20;47.30;;;;;;5046617;28;20029;-78
2021/06/02 11:27:14;;;;;;;2.72;2.53;;;25.30;47.90;;;;;;5048800;28;20025;-78
2021/06/02 11:29:52;;;;;;;2.75;2.55;;;25.40;50.20;;;;;;5047351;28;20257;-78
2021/06/02 11:32:24;;;;;;;4.55;2.65;;;25.50;49.60;;;;;;5048740;28;20455;-78
2021/06/02 11:35:06;;;;;;;2.67;2.45;;;25.60;50.80;;;;;;5048801;28;20524;-78
2021/06/02 11:37:35;;;;;;;2.50;2.30;;;25.60;49.20;;;;;;5047298;28;20029;-78
2021/06/02 11:40:07;;;;;;;4.13;2.95;;;25.70;47.60;;;;;;5047184;28;20029;-78
2021/06/02 11:42:48;;;;;;;2.40;2.20;;;25.70;46.20;;;;;;5048538;28;20032;-78
2021/06/02 11:45:15;;;;;;;2.83;2.40;;;25.80;48.00;;;;;;5048503;28;20021;-78
2021/06/02 11:47:45;;;;;;;3.00;2.80;;;26.10;51.80;;;;;;5048632;28;20029;-78
2021/06/02 11:50:22;;;;;;;2.97;2.22;;;26.20;48.50;;;;;;5047379;28;20028;-78
2021/06/02 11:52:58;;;;;;;2.53;2.33;;;26.30;49.50;;;;;;5048543;28;20048;-78
2021/06/02 11:55:25;;;;;;;2.95;2.75;;;26.40;49.30;;;;;;5048255;28;20484;-77
2021/06/02 11:57:52;;;;;;;4.55;2.70;;;26.50;49.10;;;;;;5048347;28;20025;-78
2021/06/02 12:00:22;;;;;;;7.65;3.47;;;26.70;49.50;;;;;;5048552;28;20021;-78
2021/06/02 12:02:55;;;;;;;3.00;2.80;;;26.70;45.90;;;;;;5048376;28;20060;-77
2021/06/02 12:05:26;;;;;;;4.47;3.30;;;26.60;47.20;;;;;;5048267;28;20109;-78
2021/06/02 12:07:56;;;;;;;4.53;2.70;;;26.70;48.60;;;;;;5048388;28;20536;-78
2021/06/02 12:10:24;;;;;;;3.95;3.65;;;26.90;48.30;;;;;;5048323;28;20025;-77
2021/06/02 12:12:51;;;;;;;3.75;3.45;;;26.90;47.60;;;;;;5048439;28;20059;-78
2021/06/02 12:15:18;;;;;;;3.58;3.28;;;27.10;47.30;;;;;;5047966;28;20161;-77
2021/06/02 12:17:45;;;;;;;3.17;2.97;;;27.00;45.70;;;;;;5046933;28;20018;-77
2021/06/02 12:20:20;;;;;;;3.58;3.28;;;27.30;47.50;;;;;;5048250;28;20032;-77
2021/06/02 12:22:47;;;;;;;4.15;3.40;;;27.40;47.00;;;;;;5048188;28;20033;-77
2021/06/02 12:25:22;;;;;;;3.60;3.30;;;27.40;46.60;;;;;;5048011;28;20032;-77
2021/06/02 12:27:56;;;;;;;6.68;3.70;;;27.50;47.80;;;;;;5047960;28;20104;-77
2021/06/02 12:30:43;;;;;;;3.50;3.30;;;27.70;49.50;;;;;;5047873;28;20032;-77
2021/06/02 12:33:10;;;;;;;3.65;3.35;;;27.80;48.40;;;;;;5047401;27;20033;-77
2021/06/02 12:35:38;;;;;;;4.28;3.10;;;28.00;47.60;;;;;;5049774;28;20090;-77
2021/06/02 12:38:05;;;;;;;3.15;2.95;;;27.80;46.50;;;;;;5057738;27;20025;-77
2021/06/02 12:40:33;;;;;;;3.28;2.90;;;27.80;46.60;;;;;;5039276;27;20044;-77
2021/06/02 12:42:58;;;;;;;2.92;2.72;;;28.00;47.90;;;;;;5030241;28;20022;-77
2021/06/02 12:45:26;;;;;;;2.75;2.65;;;27.90;47.70;;;;;;5030154;28;20037;-78
2021/06/02 12:47:52;;;;;;;3.20;2.90;;;28.20;49.40;;;;;;5031230;28;20018;-77
2021/06/02 12:50:49;;;;;;;3.13;2.92;;;28.40;49.30;;;;;;5031277;28;20029;-77
2021/06/02 12:53:17;;;;;;;3.15;2.95;;;28.60;48.80;;;;;;5032582;28;20477;-77
2021/06/02 12:55:45;;;;;;;3.75;3.45;;;28.80;46.60;;;;;;5051240;28;20029;-77
2021/06/02 12:58:15;;;;;;;3.50;2.90;;;28.40;44.60;;;;;;5051279;28;20036;-77
2021/06/02 13:00:43;;;;;;;3.22;3.03;;;28.40;45.80;;;;;;5051034;28;20109;-77
2021/06/02 13:03:17;;;;;;;3.72;3.42;;;28.50;46.20;;;;;;5049909;28;20484;-77
2021/06/02 13:05:47;;;;;;;5.15;3.35;;;28.40;45.10;;;;;;5051033;28;20025;-77
2021/06/02 13:08:13;;;;;;;3.85;3.55;;;28.40;45.60;;;;;;5050765;28;20021;-77
2021/06/02 13:10:42;;;;;;;3.90;3.60;;;28.40;46.60;;;;;;5049554;28;20147;-77
2021/06/02 13:13:10;;;;;;;7.03;3.88;;;28.40;46.00;;;;;;5051023;28;20544;-77
2021/06/02 13:15:37;;;;;;;7.35;3.55;;;28.50;46.50;;;;;;5050824;28;20029;-77
2021/06/02 13:18:04;;;;;;;4.03;3.63;;;28.50;45.40;;;;;;5050594;28;20031;-77
2021/06/02 13:20:41;;;;;;;4.68;4.28;;;28.50;43.70;;;;;;5050740;28;20025;-77
2021/06/02 13:23:43;;;;;;;3.63;3.33;;;28.60;44.40;;;;;;5049395;28;20029;-77
2021/06/02 13:26:10;;;;;;;5.28;3.35;;;28.60;44.00;;;;;;5041506;28;20082;-77
2021/06/02 13:28:43;;;;;;;3.72;3.42;;;28.80;45.50;;;;;;5050307;28;20029;-77
2021/06/02 13:31:13;;;;;;;4.47;4.03;;;28.90;44.10;;;;;;5049328;28;20029;-77
2021/06/02 13:33:47;;;;;;;9.65;4.07;;;28.70;43.90;;;;;;5049694;28;20057;-77
2021/06/02 13:36:16;;;;;;;4.68;4.25;;;28.60;44.40;;;;;;5051576;28;20029;-77